createdAt,value
2024-05-09T00:00:22.315Z,67.8569
2024-05-09T00:01:18.970Z,67.8563
2024-05-09T00:02:21.490Z,67.9117
2024-05-09T00:03:24.061Z,67.8586
2024-05-09T00:04:26.635Z,67.8454
2024-05-09T00:05:29.365Z,67.8356
2024-05-09T00:06:31.867Z,67.8855
2024-05-09T00:07:34.368Z,67.8400
2024-05-09T00:08:37.219Z,67.8308
2024-05-09T00:09:39.522Z,67.8325
2024-05-09T00:10:42.206Z,67.8055
2024-05-09T00:11:44.733Z,67.7916
2024-05-09T00:12:47.317Z,67.8481
2024-05-09T00:13:49.872Z,67.8503
2024-05-09T00:14:52.634Z,67.7860
2024-05-09T00:15:55.010Z,67.7749
2024-05-09T00:16:57.649Z,67.8308
2024-05-09T00:18:00.402Z,67.7844
2024-05-09T00:19:02.857Z,67.8295
2024-05-09T00:20:14.245Z,67.7901
2024-05-09T00:21:07.978Z,67.8217
2024-05-09T00:22:10.522Z,67.8438
2024-05-09T00:23:13.723Z,67.8319
2024-05-09T00:24:15.685Z,67.8031
2024-05-09T00:25:18.296Z,67.8145
2024-05-09T00:26:20.911Z,67.7694
2024-05-09T00:27:23.466Z,67.7578
2024-05-09T00:28:26.048Z,67.7510
2024-05-09T00:29:28.710Z,67.8211
2024-05-09T00:30:34.979Z,67.8036
2024-05-09T00:31:33.767Z,67.7718
2024-05-09T00:32:36.605Z,67.8190
2024-05-09T00:33:39.139Z,67.8084
2024-05-09T00:34:41.512Z,67.7606
2024-05-09T00:35:44.101Z,67.7307
2024-05-09T00:36:46.679Z,67.7162
2024-05-09T00:37:49.254Z,67.7240
2024-05-09T00:38:51.815Z,67.7707
2024-05-09T00:39:54.415Z,67.7866
2024-05-09T00:40:57.038Z,67.7679
2024-05-09T00:41:59.583Z,67.7789
2024-05-09T00:43:02.148Z,67.7508
2024-05-09T00:44:04.769Z,67.7650
2024-05-09T00:45:07.306Z,67.6444
2024-05-09T00:46:09.923Z,67.7213
2024-05-09T00:47:12.555Z,67.6988
2024-05-09T00:48:17.721Z,67.6829
2024-05-09T00:49:17.794Z,67.7293
2024-05-09T00:50:29.354Z,67.7381
2024-05-09T00:51:22.866Z,67.7232
2024-05-09T00:52:25.406Z,67.7253
2024-05-09T00:53:28.055Z,67.7020
2024-05-09T00:54:30.551Z,67.7090
2024-05-09T00:55:33.171Z,67.7593
2024-05-09T00:56:35.807Z,67.7194
2024-05-09T00:57:38.300Z,67.6896
2024-05-09T00:58:40.894Z,67.7226
2024-05-09T00:59:43.466Z,67.6747
2024-05-09T01:00:46.162Z,67.6742
2024-05-09T01:01:48.774Z,67.6524
2024-05-09T01:02:51.304Z,67.6572
2024-05-09T01:03:54.054Z,67.6545
2024-05-09T01:04:56.463Z,67.7141
2024-05-09T01:05:59.074Z,67.6891
2024-05-09T01:07:01.600Z,67.6923
2024-05-09T01:08:04.212Z,67.7334
2024-05-09T01:09:06.748Z,67.6157
2024-05-09T01:10:14.039Z,67.6591
2024-05-09T01:11:11.966Z,67.5827
2024-05-09T01:12:14.680Z,67.7074
2024-05-09T01:13:17.127Z,67.6597
2024-05-09T01:14:19.690Z,67.6303
2024-05-09T01:15:22.207Z,67.6533
2024-05-09T01:16:24.799Z,67.5014
2024-05-09T01:17:27.512Z,67.7216
2024-05-09T01:18:30.089Z,67.6252
2024-05-09T01:19:32.833Z,67.6157
2024-05-09T01:20:41.514Z,67.6105
2024-05-09T01:21:37.717Z,67.6485
2024-05-09T01:22:40.300Z,67.5329
2024-05-09T01:23:42.977Z,67.5842
2024-05-09T01:24:45.452Z,67.6469
2024-05-09T01:25:48.090Z,67.6856
2024-05-09T01:26:50.621Z,67.6684
2024-05-09T01:27:53.207Z,67.7323
2024-05-09T01:28:55.830Z,67.7011
2024-05-09T01:29:58.368Z,67.6723
2024-05-09T01:31:01.007Z,67.6512
2024-05-09T01:32:03.637Z,67.7316
2024-05-09T01:33:07.967Z,67.5962
2024-05-09T01:34:08.806Z,67.6213
2024-05-09T01:35:11.391Z,67.6290
2024-05-09T01:36:13.946Z,67.7348
2024-05-09T01:37:16.559Z,67.7518
2024-05-09T01:38:19.136Z,67.6321
2024-05-09T01:39:21.705Z,67.7508
2024-05-09T01:40:33.489Z,67.6697
2024-05-09T01:41:26.946Z,67.6377
2024-05-09T01:42:29.453Z,67.6340
2024-05-09T01:43:32.051Z,67.6750
2024-05-09T01:44:34.692Z,67.7374
2024-05-09T01:45:37.207Z,67.7161
2024-05-09T01:46:39.821Z,67.7069
2024-05-09T01:47:42.693Z,67.7418
2024-05-09T01:48:45.028Z,67.7585
2024-05-09T01:49:47.637Z,67.7347
2024-05-09T01:50:50.156Z,67.6594
2024-05-09T01:51:52.716Z,67.6645
2024-05-09T01:52:55.338Z,67.7464
2024-05-09T01:53:57.905Z,67.5856
2024-05-09T01:55:03.524Z,67.5950
2024-05-09T01:56:03.166Z,67.7181
2024-05-09T01:57:05.704Z,67.6740
2024-05-09T01:58:08.210Z,67.6486
2024-05-09T01:59:10.857Z,67.7793
2024-05-09T02:00:18.798Z,67.7832
2024-05-09T02:01:16.027Z,67.7451
2024-05-09T02:02:18.701Z,67.6248
2024-05-09T02:03:21.472Z,67.7008
2024-05-09T02:04:23.941Z,67.7228
2024-05-09T02:05:26.353Z,67.6626
2024-05-09T02:06:28.908Z,67.7317
2024-05-09T02:07:31.497Z,67.7366
2024-05-09T02:08:34.222Z,67.7724
2024-05-09T02:09:36.694Z,67.7909
2024-05-09T02:10:39.270Z,67.7751
2024-05-09T02:11:41.951Z,67.7706
2024-05-09T02:12:44.423Z,67.7005
2024-05-09T02:13:47.017Z,67.6822
2024-05-09T02:14:49.714Z,67.6047
2024-05-09T02:15:52.262Z,67.6409
2024-05-09T02:16:54.831Z,67.6472
2024-05-09T02:17:57.479Z,67.7380
2024-05-09T02:19:00.013Z,67.7452
2024-05-09T02:20:02.765Z,67.7383
2024-05-09T02:21:05.256Z,67.7637
2024-05-09T02:22:07.681Z,67.7882
2024-05-09T02:23:10.368Z,67.7087
2024-05-09T02:24:12.861Z,67.6854
2024-05-09T02:25:15.557Z,67.6769
2024-05-09T02:26:18.132Z,67.6797
2024-05-09T02:27:20.631Z,67.7107
2024-05-09T02:28:23.301Z,67.6999
2024-05-09T02:29:25.916Z,67.6982
2024-05-09T02:30:36.373Z,67.7316
2024-05-09T02:31:30.958Z,67.7432
2024-05-09T02:32:33.696Z,67.7275
2024-05-09T02:33:36.479Z,67.7887
2024-05-09T02:34:38.848Z,67.7596
2024-05-09T02:35:41.455Z,67.6794
2024-05-09T02:36:43.873Z,67.7793
2024-05-09T02:37:46.664Z,67.7660
2024-05-09T02:38:49.043Z,67.8233
2024-05-09T02:39:51.625Z,67.6939
2024-05-09T02:40:54.234Z,67.7790
2024-05-09T02:41:56.793Z,67.7891
2024-05-09T02:42:59.438Z,67.7158
2024-05-09T02:44:02.021Z,67.6814
2024-05-09T02:45:04.536Z,67.7496
2024-05-09T02:46:07.161Z,67.6636
2024-05-09T02:47:09.843Z,67.6658
2024-05-09T02:48:13.379Z,67.7474
2024-05-09T02:49:14.925Z,67.7261
2024-05-09T02:50:25.998Z,67.6215
2024-05-09T02:51:20.104Z,67.7065
2024-05-09T02:52:22.620Z,67.7708
2024-05-09T02:53:25.270Z,67.7292
2024-05-09T02:54:27.819Z,67.7786
2024-05-09T02:55:30.382Z,67.7705
2024-05-09T02:56:33.027Z,67.6776
2024-05-09T02:57:35.534Z,67.7342
2024-05-09T02:58:38.164Z,67.7119
2024-05-09T02:59:40.720Z,67.6125
2024-05-09T03:00:43.434Z,67.7368
2024-05-09T03:01:46.064Z,67.6427
2024-05-09T03:02:48.619Z,67.6941
2024-05-09T03:03:51.180Z,67.7371
2024-05-09T03:04:53.764Z,67.5929
2024-05-09T03:05:56.387Z,67.6205
2024-05-09T03:06:58.843Z,67.7137
2024-05-09T03:08:01.532Z,67.7227
2024-05-09T03:09:04.000Z,67.7553
2024-05-09T03:10:12.218Z,67.7724
2024-05-09T03:11:09.248Z,67.6306
2024-05-09T03:12:12.015Z,67.6153
2024-05-09T03:13:15.606Z,67.6724
2024-05-09T03:14:17.013Z,67.5978
2024-05-09T03:15:19.478Z,67.7107
2024-05-09T03:16:22.047Z,67.6979
2024-05-09T03:17:24.921Z,67.7613
2024-05-09T03:18:27.380Z,67.6864
2024-05-09T03:19:29.886Z,67.7214
2024-05-09T03:20:34.757Z,67.7184
2024-05-09T03:21:34.994Z,67.7160
2024-05-09T03:22:37.555Z,67.6900
2024-05-09T03:23:40.232Z,67.5148
2024-05-09T03:24:42.728Z,67.6361
2024-05-09T03:25:45.394Z,67.7126
2024-05-09T03:26:47.902Z,67.6263
2024-05-09T03:27:50.484Z,67.6482
2024-05-09T03:28:53.136Z,67.6962
2024-05-09T03:29:55.657Z,67.7261
2024-05-09T03:30:58.234Z,67.7408
2024-05-09T03:32:00.954Z,67.6684
2024-05-09T03:33:03.625Z,67.7620
2024-05-09T03:34:06.183Z,67.7854
2024-05-09T03:35:08.625Z,67.7340
2024-05-09T03:36:11.537Z,67.7357
2024-05-09T03:37:13.784Z,67.6543
2024-05-09T03:38:16.572Z,67.6912
2024-05-09T03:39:18.927Z,67.6704
2024-05-09T03:40:26.358Z,67.5821
2024-05-09T03:41:24.159Z,67.6268
2024-05-09T03:42:26.685Z,67.6462
2024-05-09T03:43:29.253Z,67.6020
2024-05-09T03:44:31.928Z,67.6964
2024-05-09T03:45:34.452Z,67.6884
2024-05-09T03:46:37.034Z,67.6367
2024-05-09T03:47:39.782Z,67.6956
2024-05-09T03:48:42.308Z,67.7105
2024-05-09T03:49:44.862Z,67.7467
2024-05-09T03:50:47.474Z,67.7147
2024-05-09T03:51:49.939Z,67.6093
2024-05-09T03:52:52.655Z,67.6952
2024-05-09T03:53:55.177Z,67.7462
2024-05-09T03:54:57.736Z,67.6560
2024-05-09T03:56:00.394Z,67.7186
2024-05-09T03:57:02.877Z,67.6863
2024-05-09T03:58:05.455Z,67.6956
2024-05-09T03:59:08.089Z,67.7677
2024-05-09T04:00:17.824Z,67.7243
2024-05-09T04:01:13.252Z,67.8261
2024-05-09T04:02:15.864Z,67.7415
2024-05-09T04:03:18.758Z,67.7820
2024-05-09T04:04:21.090Z,67.8546
2024-05-09T04:05:23.562Z,67.7377
2024-05-09T04:06:26.176Z,67.7606
2024-05-09T04:07:28.773Z,67.7978
2024-05-09T04:08:31.367Z,67.7596
2024-05-09T04:09:33.903Z,67.6556
2024-05-09T04:10:36.472Z,67.7218
2024-05-09T04:11:39.156Z,67.7472
2024-05-09T04:12:41.666Z,67.8060
2024-05-09T04:13:44.261Z,67.8731
2024-05-09T04:14:46.823Z,67.7076
2024-05-09T04:15:49.406Z,67.8136
2024-05-09T04:16:52.076Z,67.7070
2024-05-09T04:17:54.922Z,67.7044
2024-05-09T04:18:57.270Z,67.7252
2024-05-09T04:19:59.787Z,67.7224
2024-05-09T04:21:02.501Z,67.7018
2024-05-09T04:22:04.912Z,67.6366
2024-05-09T04:23:08.603Z,67.7077
2024-05-09T04:24:10.066Z,67.6991
2024-05-09T04:25:12.683Z,67.7411
2024-05-09T04:26:15.266Z,67.7707
2024-05-09T04:27:17.871Z,67.8239
2024-05-09T04:28:20.400Z,67.8524
2024-05-09T04:29:23.041Z,67.8523
2024-05-09T04:30:34.035Z,67.8424
2024-05-09T04:31:28.166Z,67.7685
2024-05-09T04:32:30.954Z,67.8854
2024-05-09T04:33:33.575Z,67.8198
2024-05-09T04:34:36.031Z,67.7173
2024-05-09T04:35:38.913Z,67.6893
2024-05-09T04:36:43.861Z,67.6952
2024-05-09T04:37:43.762Z,67.7774
2024-05-09T04:38:46.310Z,67.7378
2024-05-09T04:39:48.843Z,67.6894
2024-05-09T04:40:51.529Z,67.7609
2024-05-09T04:41:54.018Z,67.7456
2024-05-09T04:42:56.610Z,67.6829
2024-05-09T04:43:59.206Z,67.6670
2024-05-09T04:45:01.764Z,67.7791
2024-05-09T04:46:04.345Z,67.7410
2024-05-09T04:47:06.984Z,67.7698
2024-05-09T04:48:09.806Z,67.7155
2024-05-09T04:49:12.214Z,67.7910
2024-05-09T04:50:20.987Z,67.7295
2024-05-09T04:51:17.323Z,67.8881
2024-05-09T04:52:19.889Z,67.9081
2024-05-09T04:53:22.512Z,67.8514
2024-05-09T04:54:33.809Z,67.8778
2024-05-09T04:55:27.677Z,67.7405
2024-05-09T04:56:30.234Z,67.6418
2024-05-09T04:57:32.785Z,67.8580
2024-05-09T04:58:35.371Z,67.8271
2024-05-09T04:59:38.018Z,67.7444
2024-05-09T05:00:41.326Z,67.7167
2024-05-09T05:01:43.118Z,67.7522
2024-05-09T05:02:45.784Z,67.7026
2024-05-09T05:03:48.420Z,67.7591
2024-05-09T05:04:51.021Z,67.6072
2024-05-09T05:05:53.512Z,67.8113
2024-05-09T05:06:57.779Z,67.7185
2024-05-09T05:07:58.695Z,67.7962
2024-05-09T05:09:01.245Z,67.8195
2024-05-09T05:10:05.749Z,67.8724
2024-05-09T05:11:06.447Z,67.8995
2024-05-09T05:12:09.165Z,67.8332
2024-05-09T05:13:11.577Z,67.8261
2024-05-09T05:14:14.180Z,67.7506
2024-05-09T05:15:16.732Z,67.8816
2024-05-09T05:16:19.322Z,67.7782
2024-05-09T05:17:22.010Z,67.8843
2024-05-09T05:18:24.650Z,67.8204
2024-05-09T05:19:27.299Z,67.9491
2024-05-09T05:20:33.593Z,67.9197
2024-05-09T05:21:32.334Z,67.8472
2024-05-09T05:22:34.870Z,67.9410
2024-05-09T05:23:37.505Z,67.9855
2024-05-09T05:24:39.991Z,67.9785
2024-05-09T05:25:42.585Z,67.9363
2024-05-09T05:26:45.193Z,67.8038
2024-05-09T05:27:47.743Z,67.8310
2024-05-09T05:28:50.377Z,67.7890
2024-05-09T05:29:52.941Z,67.8023
2024-05-09T05:30:55.522Z,67.8271
2024-05-09T05:31:58.210Z,67.7882
2024-05-09T05:33:01.001Z,67.7916
2024-05-09T05:34:03.355Z,67.9467
2024-05-09T05:35:05.913Z,68.0007
2024-05-09T05:36:08.466Z,67.9294
2024-05-09T05:37:11.008Z,67.8176
2024-05-09T05:38:13.657Z,67.9088
2024-05-09T05:39:16.249Z,67.7693
2024-05-09T05:40:28.014Z,67.8731
2024-05-09T05:41:21.432Z,67.7410
2024-05-09T05:42:24.004Z,67.8766
2024-05-09T05:43:26.591Z,67.9517
2024-05-09T05:44:29.306Z,67.9108
2024-05-09T05:45:31.757Z,67.9626
2024-05-09T05:46:34.359Z,67.9650
2024-05-09T05:47:37.043Z,67.9857
2024-05-09T05:48:39.795Z,68.0223
2024-05-09T05:49:42.139Z,67.9991
2024-05-09T05:50:44.779Z,67.9192
2024-05-09T05:51:47.314Z,68.0066
2024-05-09T05:52:49.882Z,68.0045
2024-05-09T05:53:52.459Z,67.9511
2024-05-09T05:54:55.048Z,67.9362
2024-05-09T05:55:57.682Z,68.0262
2024-05-09T05:57:00.216Z,68.0158
2024-05-09T05:58:02.875Z,68.0620
2024-05-09T05:59:05.417Z,68.0838
2024-05-09T06:00:09.782Z,68.0599
2024-05-09T06:01:10.562Z,68.0577
2024-05-09T06:02:13.230Z,68.0491
2024-05-09T06:03:15.838Z,67.9638
2024-05-09T06:04:18.455Z,68.0439
2024-05-09T06:05:20.898Z,68.0152
2024-05-09T06:06:23.469Z,68.0501
2024-05-09T06:07:26.031Z,68.0772
2024-05-09T06:08:30.532Z,68.1074
2024-05-09T06:09:31.276Z,68.1106
2024-05-09T06:10:38.868Z,68.1609
2024-05-09T06:11:36.434Z,68.1138
2024-05-09T06:12:38.969Z,68.1059
2024-05-09T06:13:41.537Z,68.0591
2024-05-09T06:14:44.123Z,68.0262
2024-05-09T06:15:46.720Z,68.0470
2024-05-09T06:16:49.337Z,67.9609
2024-05-09T06:17:51.999Z,68.0770
2024-05-09T06:18:54.688Z,68.0713
2024-05-09T06:19:57.074Z,68.0781
2024-05-09T06:20:59.679Z,67.9708
2024-05-09T06:22:02.218Z,68.0159
2024-05-09T06:23:05.062Z,68.0748
2024-05-09T06:24:07.384Z,68.0413
2024-05-09T06:25:09.983Z,68.0705
2024-05-09T06:26:12.583Z,68.0261
2024-05-09T06:27:15.146Z,68.0779
2024-05-09T06:28:17.710Z,68.0933
2024-05-09T06:29:20.341Z,68.1540
2024-05-09T06:30:30.277Z,68.0374
2024-05-09T06:31:25.476Z,68.0394
2024-05-09T06:32:28.237Z,67.9866
2024-05-09T06:33:30.853Z,68.0355
2024-05-09T06:34:33.387Z,68.0254
2024-05-09T06:35:36.114Z,68.0538
2024-05-09T06:36:38.514Z,68.0030
2024-05-09T06:37:40.968Z,68.0096
2024-05-09T06:38:43.566Z,67.9715
2024-05-09T06:39:46.136Z,67.9613
2024-05-09T06:40:48.783Z,67.9977
2024-05-09T06:41:51.317Z,67.9214
2024-05-09T06:42:53.881Z,67.9566
2024-05-09T06:43:56.513Z,68.0184
2024-05-09T06:44:59.072Z,67.9179
2024-05-09T06:46:01.663Z,67.9530
2024-05-09T06:47:04.324Z,67.9973
2024-05-09T06:48:07.080Z,68.0512
2024-05-09T06:49:09.560Z,67.9713
2024-05-09T06:50:20.217Z,67.9262
2024-05-09T06:51:14.729Z,67.9431
2024-05-09T06:52:17.157Z,67.9617
2024-05-09T06:53:19.755Z,67.9373
2024-05-09T06:54:22.331Z,67.8551
2024-05-09T06:55:24.891Z,67.8107
2024-05-09T06:56:27.518Z,67.8219
2024-05-09T06:57:30.075Z,67.8174
2024-05-09T06:58:32.649Z,67.7971
2024-05-09T06:59:35.380Z,67.8124
2024-05-09T07:00:40.340Z,67.8164
2024-05-09T07:01:40.483Z,67.7776
2024-05-09T07:02:43.116Z,67.7663
2024-05-09T07:03:45.733Z,67.7188
2024-05-09T07:04:48.244Z,67.7643
2024-05-09T07:05:50.757Z,67.7263
2024-05-09T07:06:53.370Z,67.7369
2024-05-09T07:07:55.916Z,67.7307
2024-05-09T07:08:58.527Z,67.6646
2024-05-09T07:10:01.086Z,67.6875
2024-05-09T07:11:03.809Z,67.6870
2024-05-09T07:12:06.373Z,67.6617
2024-05-09T07:13:08.823Z,67.7031
2024-05-09T07:14:11.495Z,67.7274
2024-05-09T07:15:13.984Z,67.7252
2024-05-09T07:16:16.625Z,67.6510
2024-05-09T07:17:19.269Z,67.6367
2024-05-09T07:18:21.941Z,67.6569
2024-05-09T07:19:24.576Z,67.6610
2024-05-09T07:20:34.085Z,67.5835
2024-05-09T07:21:29.485Z,67.6275
2024-05-09T07:22:32.064Z,67.6189
2024-05-09T07:23:34.815Z,67.6580
2024-05-09T07:24:37.240Z,67.6549
2024-05-09T07:25:39.832Z,67.6339
2024-05-09T07:26:42.463Z,67.6388
2024-05-09T07:27:44.972Z,67.6078
2024-05-09T07:28:47.618Z,67.6043
2024-05-09T07:29:50.134Z,67.5637
2024-05-09T07:30:52.729Z,67.6377
2024-05-09T07:31:55.343Z,67.6867
2024-05-09T07:32:58.115Z,67.6902
2024-05-09T07:34:00.705Z,67.5826
2024-05-09T07:35:03.182Z,67.7133
2024-05-09T07:36:05.657Z,67.8288
2024-05-09T07:37:08.262Z,67.7494
2024-05-09T07:38:10.862Z,67.7407
2024-05-09T07:39:13.367Z,67.7092
2024-05-09T07:40:24.882Z,67.6550
2024-05-09T07:41:18.594Z,67.6475
2024-05-09T07:42:21.126Z,67.7231
2024-05-09T07:43:23.743Z,67.6280
2024-05-09T07:44:26.285Z,67.7051
2024-05-09T07:45:45.219Z,67.6563
2024-05-09T07:47:37.114Z,67.5496
2024-05-09T07:50:34.437Z,67.5238
2024-05-09T07:53:14.438Z,67.6198
2024-05-09T07:53:34.619Z,67.6066
2024-05-09T07:53:52.382Z,67.5801
2024-05-09T07:54:52.293Z,67.5495
2024-05-09T07:55:55.248Z,67.4776
2024-05-09T07:56:57.564Z,67.5684
2024-05-09T07:57:59.914Z,67.5243
2024-05-09T07:59:02.457Z,67.5233
2024-05-09T08:00:06.655Z,67.4997
2024-05-09T08:01:07.715Z,67.4161
2024-05-09T08:02:10.374Z,67.4478
2024-05-09T08:03:12.859Z,67.4923
2024-05-09T08:04:15.469Z,67.4355
2024-05-09T08:05:18.102Z,67.4854
2024-05-09T08:06:20.538Z,67.3086
2024-05-09T08:07:23.192Z,67.3281
2024-05-09T08:08:25.722Z,67.3061
2024-05-09T08:09:28.339Z,67.3457
2024-05-09T08:10:30.960Z,67.3938
2024-05-09T08:11:33.504Z,67.3802
2024-05-09T08:12:36.099Z,67.4362
2024-05-09T08:13:38.725Z,67.4588
2024-05-09T08:14:41.213Z,67.6233
2024-05-09T08:15:43.896Z,67.3271
2024-05-09T08:16:46.390Z,67.1155
2024-05-09T08:17:49.063Z,66.9343
2024-05-09T08:18:51.671Z,67.3970
2024-05-09T08:19:54.136Z,66.6883
2024-05-09T08:20:56.719Z,66.8860
2024-05-09T08:21:59.341Z,67.0011
2024-05-09T08:23:01.887Z,66.7006
2024-05-09T08:24:04.485Z,66.7040
2024-05-09T08:25:07.076Z,66.6974
2024-05-09T08:26:09.639Z,66.5746
2024-05-09T08:27:12.242Z,66.5354
2024-05-09T08:28:14.852Z,66.5788
2024-05-09T08:29:17.407Z,66.5290
2024-05-09T08:30:25.304Z,66.5002
2024-05-09T08:31:22.792Z,66.4542
2024-05-09T08:32:25.185Z,66.3688
2024-05-09T08:33:27.835Z,66.6218
2024-05-09T08:34:30.358Z,66.3975
2024-05-09T08:35:32.934Z,66.3091
2024-05-09T08:36:35.513Z,66.3498
2024-05-09T08:37:40.483Z,66.2597
2024-05-09T08:38:40.656Z,66.3884
2024-05-09T08:39:43.258Z,67.0103
2024-05-09T08:40:45.898Z,67.3999
2024-05-09T08:41:48.398Z,66.9008
2024-05-09T08:42:51.003Z,66.6943
2024-05-09T08:43:53.562Z,66.4871
2024-05-09T08:44:56.133Z,66.3703
2024-05-09T08:45:58.766Z,66.5968
2024-05-09T08:47:01.385Z,66.6532
2024-05-09T08:48:04.070Z,66.9052
2024-05-09T08:49:06.642Z,66.8021
2024-05-09T08:50:13.783Z,67.0399
2024-05-09T08:51:11.641Z,66.7994
2024-05-09T08:52:14.229Z,66.8265
2024-05-09T08:53:16.822Z,66.9695
2024-05-09T08:54:19.395Z,67.0155
2024-05-09T08:55:21.994Z,67.0772
2024-05-09T08:56:24.600Z,66.8851
2024-05-09T08:57:27.228Z,67.3014
2024-05-09T08:58:29.721Z,67.4414
2024-05-09T08:59:32.340Z,67.2504
2024-05-09T09:00:37.310Z,67.0471
2024-05-09T09:01:38.136Z,67.3322
2024-05-09T09:02:40.250Z,67.1762
2024-05-09T09:03:42.848Z,67.0996
2024-05-09T09:04:45.295Z,67.5843
2024-05-09T09:05:47.839Z,67.5054
2024-05-09T09:06:51.453Z,67.5491
2024-05-09T09:07:52.975Z,67.4419
2024-05-09T09:08:55.550Z,67.4048
2024-05-09T09:09:58.154Z,67.1047
2024-05-09T09:11:00.761Z,67.1560
2024-05-09T09:12:03.327Z,67.2374
2024-05-09T09:13:05.932Z,67.4232
2024-05-09T09:14:08.484Z,67.4664
2024-05-09T09:15:11.076Z,67.2296
2024-05-09T09:16:13.750Z,67.3086
2024-05-09T09:17:16.338Z,67.1087
2024-05-09T09:18:19.292Z,67.3032
2024-05-09T09:19:21.581Z,67.5246
2024-05-09T09:20:29.402Z,67.0581
2024-05-09T09:21:26.773Z,67.0633
2024-05-09T09:22:29.164Z,67.1227
2024-05-09T09:23:31.880Z,67.0035
2024-05-09T09:24:34.373Z,67.2409
2024-05-09T09:25:36.920Z,66.8957
2024-05-09T09:26:39.503Z,66.8627
2024-05-09T09:27:42.167Z,67.1147
2024-05-09T09:28:44.669Z,66.8512
2024-05-09T09:29:47.293Z,66.8980
2024-05-09T09:30:49.905Z,67.3242
2024-05-09T09:31:52.445Z,67.0802
2024-05-09T09:32:55.123Z,67.0545
2024-05-09T09:33:57.936Z,67.2021
2024-05-09T09:35:00.237Z,67.5019
2024-05-09T09:36:02.753Z,67.1888
2024-05-09T09:37:05.404Z,67.0701
2024-05-09T09:38:07.992Z,67.1537
2024-05-09T09:39:10.560Z,67.3105
2024-05-09T09:40:13.468Z,67.2974
2024-05-09T09:41:15.758Z,67.3224
2024-05-09T09:42:18.265Z,67.1983
2024-05-09T09:43:21.177Z,67.1176
2024-05-09T09:44:23.412Z,67.4308
2024-05-09T09:45:26.053Z,67.3720
2024-05-09T09:46:28.740Z,67.4356
2024-05-09T09:47:31.300Z,67.2884
2024-05-09T09:48:34.080Z,67.2558
2024-05-09T09:49:36.411Z,67.3918
2024-05-09T09:50:38.965Z,67.5173
2024-05-09T09:51:41.608Z,67.4533
2024-05-09T09:52:44.123Z,67.4422
2024-05-09T09:53:46.748Z,67.7303
2024-05-09T09:54:49.381Z,67.6707
2024-05-09T09:55:51.897Z,67.5966
2024-05-09T09:56:54.453Z,67.7192
2024-05-09T09:57:57.112Z,67.5892
2024-05-09T09:58:59.621Z,67.6174
2024-05-09T10:00:03.119Z,67.4399
2024-05-09T10:01:04.986Z,67.6671
2024-05-09T10:02:07.600Z,67.6208
2024-05-09T10:03:10.133Z,67.6301
2024-05-09T10:04:12.692Z,67.5651
2024-05-09T10:05:15.160Z,67.4443
2024-05-09T10:06:17.681Z,67.3573
2024-05-09T10:07:20.354Z,67.2187
2024-05-09T10:08:22.858Z,67.2778
2024-05-09T10:09:25.473Z,67.2714
2024-05-09T10:10:32.317Z,67.3953
2024-05-09T10:11:31.679Z,67.3667
2024-05-09T10:12:33.267Z,67.3187
2024-05-09T10:13:35.863Z,67.6020
2024-05-09T10:14:38.342Z,67.6044
2024-05-09T10:15:40.966Z,67.5336
2024-05-09T10:16:43.528Z,67.4205
2024-05-09T10:17:46.150Z,67.4156
2024-05-09T10:18:48.861Z,67.4693
2024-05-09T10:19:51.389Z,67.4216
2024-05-09T10:20:53.826Z,67.4931
2024-05-09T10:21:56.427Z,67.3749
2024-05-09T10:22:59.055Z,67.3680
2024-05-09T10:24:01.583Z,67.2327
2024-05-09T10:25:05.108Z,67.2892
2024-05-09T10:26:06.748Z,67.4152
2024-05-09T10:27:09.400Z,67.3114
2024-05-09T10:28:12.081Z,67.2487
2024-05-09T10:29:14.517Z,67.4431
2024-05-09T10:30:25.816Z,67.6025
2024-05-09T10:31:19.683Z,67.7668
2024-05-09T10:32:22.363Z,67.7465
2024-05-09T10:33:24.987Z,67.6634
2024-05-09T10:34:27.632Z,67.5758
2024-05-09T10:35:30.023Z,67.5142
2024-05-09T10:36:32.644Z,67.4343
2024-05-09T10:37:35.236Z,67.3729
2024-05-09T10:38:37.748Z,67.3592
2024-05-09T10:39:40.359Z,67.4622
2024-05-09T10:40:42.964Z,67.4376
2024-05-09T10:41:45.493Z,67.3703
2024-05-09T10:42:48.183Z,67.4208
2024-05-09T10:43:50.705Z,67.4323
2024-05-09T10:44:53.338Z,67.4340
2024-05-09T10:45:55.856Z,67.4633
2024-05-09T10:46:58.437Z,67.3952
2024-05-09T10:48:01.163Z,67.5612
2024-05-09T10:49:06.294Z,67.4874
2024-05-09T10:50:12.710Z,67.5760
2024-05-09T10:51:08.744Z,67.6529
2024-05-09T10:52:11.350Z,67.6118
2024-05-09T10:53:13.895Z,67.6126
2024-05-09T10:54:16.509Z,67.4923
2024-05-09T10:55:19.285Z,67.3746
2024-05-09T10:56:21.663Z,67.4253
2024-05-09T10:57:24.230Z,67.3811
2024-05-09T10:58:26.805Z,67.3489
2024-05-09T10:59:29.400Z,67.4553
2024-05-09T11:00:35.863Z,67.5667
2024-05-09T11:01:34.639Z,67.6871
2024-05-09T11:02:37.291Z,67.5101
2024-05-09T11:03:40.127Z,67.6299
2024-05-09T11:04:42.485Z,67.6374
2024-05-09T11:05:45.094Z,67.7120
2024-05-09T11:06:47.532Z,67.6631
2024-05-09T11:07:50.071Z,67.5804
2024-05-09T11:08:52.649Z,67.6924
2024-05-09T11:09:55.301Z,67.6720
2024-05-09T11:10:57.855Z,67.6546
2024-05-09T11:12:00.463Z,67.6361
2024-05-09T11:13:03.048Z,67.6817
2024-05-09T11:14:05.565Z,67.6031
2024-05-09T11:15:08.180Z,67.6750
2024-05-09T11:16:10.801Z,67.7560
2024-05-09T11:17:13.322Z,67.6767
2024-05-09T11:18:16.063Z,67.5815
2024-05-09T11:19:18.673Z,67.5484
2024-05-09T11:20:26.942Z,67.7025
2024-05-09T11:21:23.652Z,67.6969
2024-05-09T11:22:26.289Z,67.6958
2024-05-09T11:23:28.804Z,67.6923
2024-05-09T11:24:31.407Z,67.7620
2024-05-09T11:25:33.975Z,67.7138
2024-05-09T11:26:36.612Z,67.6428
2024-05-09T11:27:39.184Z,67.6893
2024-05-09T11:28:41.734Z,67.7125
2024-05-09T11:29:44.315Z,67.7208
2024-05-09T11:30:46.983Z,67.7806
2024-05-09T11:31:49.668Z,67.7343
2024-05-09T11:32:52.298Z,67.7094
2024-05-09T11:33:54.846Z,67.7019
2024-05-09T11:34:57.244Z,67.7024
2024-05-09T11:35:59.823Z,67.6763
2024-05-09T11:37:02.494Z,67.6985
2024-05-09T11:38:04.995Z,67.6860
2024-05-09T11:39:07.593Z,67.6835
2024-05-09T11:40:16.814Z,67.6544
2024-05-09T11:41:12.774Z,67.6820
2024-05-09T11:42:15.326Z,67.6836
2024-05-09T11:43:18.053Z,67.6591
2024-05-09T11:44:20.523Z,67.6738
2024-05-09T11:45:23.148Z,67.6479
2024-05-09T11:46:25.819Z,67.6570
2024-05-09T11:47:28.289Z,67.6559
2024-05-09T11:48:31.148Z,67.6694
2024-05-09T11:49:33.563Z,67.7481
2024-05-09T11:50:36.444Z,67.7302
2024-05-09T11:51:38.637Z,67.7287
2024-05-09T11:52:41.164Z,67.7146
2024-05-09T11:53:43.762Z,67.7471
2024-05-09T11:54:46.381Z,67.7778
2024-05-09T11:55:48.946Z,67.7556
2024-05-09T11:56:51.604Z,67.7796
2024-05-09T11:57:54.097Z,67.8024
2024-05-09T11:58:56.664Z,67.7436
2024-05-09T11:59:59.249Z,67.7349
2024-05-09T12:01:01.979Z,67.8021
2024-05-09T12:02:04.589Z,67.7666
2024-05-09T12:03:07.099Z,67.7902
2024-05-09T12:04:09.699Z,67.8440
2024-05-09T12:05:12.246Z,67.8322
2024-05-09T12:06:14.769Z,67.8880
2024-05-09T12:07:17.439Z,67.8541
2024-05-09T12:08:19.934Z,67.9138
2024-05-09T12:09:22.494Z,67.9275
2024-05-09T12:10:32.125Z,67.8900
2024-05-09T12:11:27.703Z,67.8726
2024-05-09T12:12:30.302Z,67.9081
2024-05-09T12:13:32.957Z,67.9008
2024-05-09T12:14:35.447Z,67.9187
2024-05-09T12:15:38.879Z,67.9129
2024-05-09T12:16:40.653Z,67.8788
2024-05-09T12:17:43.288Z,67.8907
2024-05-09T12:18:45.904Z,67.8637
2024-05-09T12:19:48.419Z,67.8465
2024-05-09T12:20:50.949Z,67.8830
2024-05-09T12:21:53.553Z,67.9164
2024-05-09T12:22:56.099Z,67.8395
2024-05-09T12:23:58.679Z,67.7860
2024-05-09T12:25:01.316Z,67.8340
2024-05-09T12:26:03.868Z,67.8076
2024-05-09T12:27:06.457Z,67.8156
2024-05-09T12:28:09.198Z,67.7883
2024-05-09T12:29:11.622Z,67.8448
2024-05-09T12:30:20.729Z,67.8659
2024-05-09T12:31:16.807Z,67.8767
2024-05-09T12:32:19.420Z,67.9259
2024-05-09T12:33:22.144Z,67.9490
2024-05-09T12:34:24.574Z,67.9289
2024-05-09T12:35:27.152Z,67.8441
2024-05-09T12:36:29.702Z,67.8049
2024-05-09T12:37:32.313Z,67.7910
2024-05-09T12:38:34.915Z,67.8241
2024-05-09T12:39:37.538Z,67.8484